createdAt,value
2018-05-26T00:00:26.475Z,13.40
2018-05-26T00:02:54.342Z,14.20
2018-05-26T00:05:21.887Z,15.63
2018-05-26T00:07:49.447Z,14.57
2018-05-26T00:10:17.761Z,12.23
2018-05-26T00:12:46.149Z,12.43
2018-05-26T00:15:13.703Z,13.27
2018-05-26T00:17:42.004Z,12.10
2018-05-26T00:20:09.752Z,11.27
2018-05-26T00:22:37.301Z,13.37
2018-05-26T00:25:04.864Z,11.77
2018-05-26T00:27:32.407Z,13.20
2018-05-26T00:29:59.956Z,13.13
2018-05-26T00:32:27.499Z,11.80
2018-05-26T00:34:55.315Z,12.47
2018-05-26T00:37:22.873Z,14.27
2018-05-26T00:39:50.424Z,11.70
2018-05-26T00:42:18.732Z,17.90
2018-05-26T00:44:46.574Z,12.20
2018-05-26T00:47:14.119Z,13.67
2018-05-26T00:49:41.671Z,12.63
2018-05-26T00:52:09.984Z,12.47
2018-05-26T00:54:38.356Z,12.77
2018-05-26T00:57:05.992Z,12.17
2018-05-26T00:59:33.547Z,11.03
2018-05-26T01:02:02.057Z,13.00
2018-05-26T01:04:30.378Z,12.37
2018-05-26T01:06:57.920Z,14.67
2018-05-26T01:09:25.514Z,12.13
2018-05-26T01:11:53.040Z,13.03
2018-05-26T01:14:20.596Z,13.33
2018-05-26T01:16:48.909Z,15.30
2018-05-26T01:19:18.489Z,12.70
2018-05-26T01:21:46.227Z,12.77
2018-05-26T01:24:13.777Z,12.60
2018-05-26T01:26:42.185Z,14.70
2018-05-26T01:29:09.740Z,16.33
2018-05-26T01:31:38.153Z,13.20
2018-05-26T01:34:06.694Z,16.57
2018-05-26T01:36:34.240Z,14.53
2018-05-26T01:39:01.995Z,12.90
2018-05-26T01:41:30.311Z,13.00
2018-05-26T01:43:59.752Z,12.37
2018-05-26T01:46:27.312Z,12.60
2018-05-26T01:48:54.956Z,13.57
2018-05-26T01:51:22.513Z,12.60
2018-05-26T01:53:50.065Z,13.03
2018-05-26T01:56:18.442Z,13.00
2018-05-26T01:58:48.165Z,12.70
2018-05-26T02:01:17.185Z,12.47
2018-05-26T02:03:44.727Z,12.10
2018-05-26T02:06:14.154Z,13.40
2018-05-26T02:08:41.700Z,12.67
2018-05-26T02:11:10.218Z,14.07
2018-05-26T02:13:37.759Z,13.47
2018-05-26T02:16:05.428Z,13.10
2018-05-26T02:18:32.989Z,13.13
2018-05-26T02:21:01.136Z,12.07
2018-05-26T02:23:30.273Z,13.47
2018-05-26T02:25:58.627Z,16.20
2018-05-26T02:28:26.250Z,13.13
2018-05-26T02:30:55.073Z,13.57
2018-05-26T02:33:22.616Z,12.80
2018-05-26T02:35:51.375Z,15.63
2018-05-26T02:38:19.807Z,12.83
2018-05-26T02:40:47.477Z,13.53
2018-05-26T02:43:17.028Z,13.23
2018-05-26T02:45:44.565Z,14.27
2018-05-26T02:48:12.176Z,14.93
2018-05-26T02:50:39.856Z,15.33
2018-05-26T02:53:08.285Z,13.73
2018-05-26T02:55:35.931Z,13.40
2018-05-26T02:58:04.308Z,13.90
2018-05-26T03:00:32.009Z,12.77
2018-05-26T03:03:00.605Z,12.57
2018-05-26T03:05:34.165Z,12.17
2018-05-26T03:08:08.418Z,14.47
2018-05-26T03:10:42.560Z,14.03
2018-05-26T03:13:16.554Z,13.97
2018-05-26T03:18:44.301Z,12.47
2018-05-26T03:21:13.704Z,12.70
2018-05-26T03:23:43.114Z,14.43
2018-05-26T03:26:10.644Z,13.53
2018-05-26T03:28:38.197Z,14.20
2018-05-26T03:31:07.623Z,13.43
2018-05-26T03:33:35.188Z,14.30
2018-05-26T03:36:03.650Z,13.40
2018-05-26T03:38:31.840Z,14.20
2018-05-26T03:40:59.398Z,14.03
2018-05-26T03:43:27.904Z,13.77
2018-05-26T03:45:56.628Z,15.00
2018-05-26T03:48:25.295Z,14.10
2018-05-26T03:50:52.964Z,14.20
2018-05-26T03:53:21.622Z,15.07
2018-05-26T03:56:01.113Z,13.97
2018-05-26T03:58:40.792Z,13.40
2018-05-26T04:01:08.511Z,14.10
2018-05-26T04:03:37.008Z,15.00
2018-05-26T04:06:04.576Z,14.80
2018-05-26T04:08:32.383Z,13.93
2018-05-26T04:10:59.932Z,17.27
2018-05-26T04:13:27.513Z,14.77
2018-05-26T04:15:55.437Z,15.27
2018-05-26T04:18:23.093Z,14.87
2018-05-26T04:20:51.408Z,14.87
2018-05-26T04:23:19.718Z,14.83
2018-05-26T04:25:48.855Z,15.33
2018-05-26T04:28:16.500Z,14.20
2018-05-26T04:30:44.923Z,15.77
2018-05-26T04:33:12.533Z,16.50
2018-05-26T04:35:42.720Z,16.17
2018-05-26T04:38:10.823Z,16.87
2018-05-26T04:40:38.371Z,16.03
2018-05-26T04:43:05.913Z,16.60
2018-05-26T04:45:33.499Z,14.50
2018-05-26T04:48:01.104Z,13.07
2018-05-26T04:50:29.749Z,14.20
2018-05-26T04:53:00.212Z,13.67
2018-05-26T04:55:27.798Z,14.20
2018-05-26T04:57:55.611Z,16.50
2018-05-26T05:00:23.164Z,15.97
2018-05-26T05:02:51.703Z,16.63
2018-05-26T05:05:19.257Z,15.10
2018-05-26T05:07:47.925Z,15.73
2018-05-26T05:10:15.475Z,16.10
2018-05-26T05:12:44.065Z,14.73
2018-05-26T05:15:12.378Z,18.90
2018-05-26T05:17:41.232Z,16.50
2018-05-26T05:20:08.897Z,15.70
2018-05-26T05:22:36.484Z,16.70
2018-05-26T05:25:04.025Z,17.77
2018-05-26T05:27:31.744Z,17.50
2018-05-26T05:30:00.451Z,16.57
2018-05-26T05:32:29.089Z,15.67
2018-05-26T05:34:56.736Z,14.90
2018-05-26T05:37:25.225Z,13.57
2018-05-26T05:39:53.783Z,14.17
2018-05-26T05:42:21.417Z,14.97
2018-05-26T05:44:48.995Z,12.57
2018-05-26T05:47:17.437Z,14.37
2018-05-26T05:49:45.831Z,13.07
2018-05-26T05:52:13.659Z,11.50
2018-05-26T05:54:42.020Z,10.83
2018-05-26T05:57:10.012Z,11.13
2018-05-26T05:59:37.552Z,10.73
2018-05-26T06:02:05.099Z,9.90
2018-05-26T06:04:35.367Z,11.33
2018-05-26T06:07:03.671Z,11.47
2018-05-26T06:09:32.074Z,11.03
2018-05-26T06:12:00.373Z,9.73
2018-05-26T06:14:28.675Z,10.07
2018-05-26T06:16:56.229Z,9.50
2018-05-26T06:19:23.812Z,9.03
2018-05-26T06:21:51.344Z,9.03
2018-05-26T06:24:19.679Z,10.80
2018-05-26T06:26:47.904Z,8.63
2018-05-26T06:29:15.480Z,8.23
2018-05-26T06:31:43.047Z,9.63
2018-05-26T06:34:12.671Z,8.97
2018-05-26T06:36:42.403Z,8.87
2018-05-26T06:39:11.141Z,8.00
2018-05-26T06:41:39.656Z,7.93
2018-05-26T06:44:08.509Z,8.50
2018-05-26T06:46:38.136Z,9.67
2018-05-26T06:49:05.681Z,8.43
2018-05-26T06:51:33.281Z,9.03
2018-05-26T06:54:01.677Z,8.97
2018-05-26T06:56:30.088Z,8.93
2018-05-26T06:58:57.636Z,9.40
2018-05-26T07:01:26.678Z,8.27
2018-05-26T07:03:54.401Z,8.30
2018-05-26T07:06:23.754Z,7.60
2018-05-26T07:08:51.296Z,7.60
2018-05-26T07:11:18.889Z,7.63
2018-05-26T07:13:47.482Z,7.70
2018-05-26T07:16:14.975Z,7.40
2018-05-26T07:18:43.520Z,7.40
2018-05-26T07:21:11.075Z,6.50
2018-05-26T07:23:40.467Z,5.93
2018-05-26T07:26:08.921Z,7.73
2018-05-26T07:28:36.497Z,6.80
2018-05-26T07:31:04.902Z,6.17
2018-05-26T07:33:33.645Z,6.70
2018-05-26T07:36:01.192Z,6.17
2018-05-26T07:38:28.720Z,6.60
2018-05-26T07:40:57.494Z,5.77
2018-05-26T07:43:26.411Z,7.30
2018-05-26T07:45:54.779Z,6.23
2018-05-26T07:48:23.332Z,6.70
2018-05-26T07:50:50.882Z,5.80
2018-05-26T07:53:19.408Z,5.27
2018-05-26T07:55:48.126Z,5.23
2018-05-26T07:58:16.411Z,5.67
2018-05-26T08:00:43.875Z,4.67
2018-05-26T08:03:12.010Z,5.17
2018-05-26T08:05:39.680Z,7.10
2018-05-26T08:08:08.089Z,6.63
2018-05-26T08:10:36.788Z,4.43
2018-05-26T08:13:06.228Z,6.53
2018-05-26T08:15:34.545Z,4.37
2018-05-26T08:18:02.145Z,6.27
2018-05-26T08:20:30.546Z,6.20
2018-05-26T08:22:58.081Z,7.47
2018-05-26T08:25:26.707Z,6.40
2018-05-26T08:27:54.452Z,4.80
2018-05-26T08:30:22.010Z,4.33
2018-05-26T08:32:49.544Z,7.33
2018-05-26T08:35:17.708Z,5.00
2018-05-26T08:37:45.287Z,4.70
2018-05-26T08:40:13.831Z,6.25
2018-05-26T08:42:41.483Z,4.03
2018-05-26T08:45:11.122Z,4.43
2018-05-26T08:47:38.682Z,4.50
2018-05-26T08:50:07.840Z,6.27
2018-05-26T08:52:36.220Z,7.60
2018-05-26T08:55:05.480Z,4.57
2018-05-26T08:57:33.200Z,5.93
2018-05-26T09:00:00.768Z,5.95
2018-05-26T09:02:28.327Z,4.57
2018-05-26T09:04:55.999Z,4.07
2018-05-26T09:07:24.564Z,4.37
2018-05-26T09:09:52.128Z,3.97
2018-05-26T09:12:19.704Z,4.05
2018-05-26T09:14:47.359Z,3.80
2018-05-26T09:17:14.918Z,4.47
2018-05-26T09:19:43.259Z,6.00
2018-05-26T09:22:11.220Z,4.45
2018-05-26T09:24:39.891Z,4.10
2018-05-26T09:27:07.465Z,4.12
2018-05-26T09:29:35.595Z,3.90
2018-05-26T09:32:04.008Z,3.85
2018-05-26T09:34:34.458Z,5.05
2018-05-26T09:37:02.469Z,4.00
2018-05-26T09:39:30.040Z,4.10
2018-05-26T09:41:57.597Z,4.32
2018-05-26T09:44:25.703Z,3.78
2018-05-26T09:46:53.280Z,4.62
2018-05-26T09:49:21.612Z,6.32
2018-05-26T09:51:49.182Z,3.40
2018-05-26T09:54:17.037Z,3.58
2018-05-26T09:56:46.426Z,3.30
2018-05-26T09:59:14.117Z,3.42
2018-05-26T10:01:42.660Z,3.33
2018-05-26T10:04:10.957Z,3.75
2018-05-26T10:06:38.535Z,3.85
2018-05-26T10:09:06.881Z,3.80
2018-05-26T10:11:34.441Z,3.75
2018-05-26T10:14:02.152Z,3.55
2018-05-26T10:16:29.727Z,3.42
2018-05-26T10:19:00.201Z,3.05
2018-05-26T10:21:27.760Z,7.28
2018-05-26T10:23:55.487Z,3.72
2018-05-26T10:26:23.053Z,3.97
2018-05-26T10:28:50.724Z,3.28
2018-05-26T10:31:18.295Z,4.57
2018-05-26T10:33:45.870Z,4.80
2018-05-26T10:36:14.205Z,6.03
2018-05-26T10:38:42.984Z,3.28
2018-05-26T10:41:11.344Z,3.42
2018-05-26T10:43:38.969Z,3.28
2018-05-26T10:46:21.516Z,4.70
2018-05-26T10:48:49.105Z,3.40
2018-05-26T10:51:17.787Z,3.25
2018-05-26T10:53:45.620Z,4.20
2018-05-26T10:56:13.192Z,3.65
2018-05-26T10:58:43.406Z,4.12
2018-05-26T11:01:10.972Z,5.03
2018-05-26T11:03:38.628Z,3.10
2018-05-26T11:06:06.213Z,3.70
2018-05-26T11:08:35.018Z,3.20
2018-05-26T11:11:03.765Z,3.50
2018-05-26T11:13:33.518Z,4.03
2018-05-26T11:16:01.221Z,4.35
2018-05-26T11:18:28.797Z,3.20
2018-05-26T11:20:57.855Z,3.15
2018-05-26T11:23:26.811Z,3.00
2018-05-26T11:25:54.479Z,4.62
2018-05-26T11:28:23.048Z,2.95
2018-05-26T11:30:50.620Z,3.17
2018-05-26T11:33:18.375Z,4.43
2018-05-26T11:35:47.080Z,3.47
2018-05-26T11:38:15.336Z,3.35
2018-05-26T11:40:42.904Z,4.03
2018-05-26T11:43:10.526Z,3.75
2018-05-26T11:45:38.170Z,4.22
2018-05-26T11:48:05.760Z,3.30
2018-05-26T11:50:34.478Z,3.10
2018-05-26T11:53:02.320Z,2.87
2018-05-26T11:55:32.428Z,3.30
2018-05-26T11:58:00.573Z,3.25
2018-05-26T12:00:28.134Z,2.75
2018-05-26T12:02:55.821Z,2.87
2018-05-26T12:05:23.385Z,2.75
2018-05-26T12:07:53.258Z,2.80
2018-05-26T12:10:20.819Z,3.87
2018-05-26T12:12:48.585Z,7.93
2018-05-26T12:15:16.151Z,3.17
2018-05-26T12:17:45.271Z,4.45
2018-05-26T12:20:13.231Z,3.83
2018-05-26T12:22:40.950Z,2.83
2018-05-26T12:25:09.263Z,3.50
2018-05-26T12:27:37.621Z,3.08
2018-05-26T12:30:06.571Z,3.30
2018-05-26T12:32:34.135Z,2.60
2018-05-26T12:35:01.991Z,7.68
2018-05-26T12:37:30.605Z,4.12
2018-05-26T12:39:59.814Z,2.70
2018-05-26T12:42:27.332Z,3.90
2018-05-26T12:44:55.145Z,3.20
2018-05-26T12:47:22.729Z,4.28
2018-05-26T12:49:50.406Z,3.00
2018-05-26T12:52:18.783Z,4.03
2018-05-26T12:54:47.224Z,3.00
2018-05-26T12:57:14.789Z,5.37
2018-05-26T12:59:43.138Z,3.25
2018-05-26T13:02:10.717Z,2.97
2018-05-26T13:04:39.340Z,4.95
2018-05-26T13:07:06.913Z,3.37
2018-05-26T13:09:35.726Z,3.22
2018-05-26T13:12:03.453Z,2.97
2018-05-26T13:14:31.058Z,3.50
2018-05-26T13:16:58.639Z,3.97
2018-05-26T13:19:26.206Z,4.68
2018-05-26T13:21:54.118Z,3.67
2018-05-26T13:24:21.863Z,2.95
2018-05-26T13:26:50.893Z,4.25
2018-05-26T13:29:20.079Z,2.95
2018-05-26T13:31:50.218Z,3.17
2018-05-26T13:34:18.059Z,3.20
2018-05-26T13:36:45.627Z,4.40
2018-05-26T13:39:13.193Z,4.07
2018-05-26T13:41:40.780Z,4.20
2018-05-26T13:44:08.373Z,3.20
2018-05-26T13:46:36.939Z,4.07
2018-05-26T13:49:05.047Z,3.83
2018-05-26T13:51:32.625Z,3.30
2018-05-26T13:54:00.265Z,3.10
2018-05-26T13:56:29.961Z,3.35
2018-05-26T13:58:57.522Z,3.20
2018-05-26T14:01:27.384Z,3.03
2018-05-26T14:03:55.402Z,3.05
2018-05-26T14:06:22.959Z,3.15
2018-05-26T14:08:50.809Z,3.12
2018-05-26T14:11:18.560Z,3.10
2018-05-26T14:13:46.767Z,3.20
2018-05-26T14:16:14.348Z,3.28
2018-05-26T14:18:42.604Z,4.55
2018-05-26T14:21:10.400Z,4.70
2018-05-26T14:23:38.729Z,5.37
2018-05-26T14:26:07.042Z,4.25
2018-05-26T14:28:35.971Z,3.30
2018-05-26T14:31:03.716Z,3.20
2018-05-26T14:33:32.094Z,4.37
2018-05-26T14:36:00.868Z,8.15
2018-05-26T14:38:29.095Z,6.55
2018-05-26T14:40:57.064Z,4.20
2018-05-26T14:43:25.008Z,3.35
2018-05-26T14:45:54.635Z,4.43
2018-05-26T14:48:22.832Z,4.25
2018-05-26T14:50:50.402Z,6.55
2018-05-26T14:53:17.967Z,3.75
2018-05-26T14:55:45.525Z,4.65
2018-05-26T14:58:13.858Z,7.75
2018-05-26T15:00:41.416Z,4.87
2018-05-26T15:03:08.986Z,3.75
2018-05-26T15:05:37.312Z,3.53
2018-05-26T15:08:04.939Z,4.60
2018-05-26T15:10:32.592Z,6.45
2018-05-26T15:13:00.259Z,7.28
2018-05-26T15:15:28.601Z,3.47
2018-05-26T15:17:56.252Z,4.68
2018-05-26T15:20:25.008Z,3.75
2018-05-26T15:22:52.582Z,6.07
2018-05-26T15:25:20.135Z,5.35
2018-05-26T15:27:47.716Z,4.03
2018-05-26T15:30:16.514Z,4.05
2018-05-26T15:32:44.989Z,3.78
2018-05-26T15:35:12.552Z,3.78
2018-05-26T15:37:42.045Z,4.93
2018-05-26T15:40:11.089Z,3.83
2018-05-26T15:42:39.891Z,3.53
2018-05-26T15:45:09.432Z,4.35
2018-05-26T15:47:37.015Z,4.35
2018-05-26T15:50:04.565Z,5.05
2018-05-26T15:52:32.363Z,10.15
2018-05-26T15:55:01.461Z,5.53
2018-05-26T15:57:29.424Z,5.00
2018-05-26T15:59:57.039Z,4.97
2018-05-26T16:02:26.019Z,5.62
2018-05-26T16:04:53.581Z,5.78
2018-05-26T16:07:22.652Z,7.45
2018-05-26T16:09:51.201Z,3.60
2018-05-26T16:12:18.856Z,4.87
2018-05-26T16:14:46.424Z,5.72
2018-05-26T16:17:18.012Z,4.65
2018-05-26T16:19:45.578Z,3.87
2018-05-26T16:22:13.139Z,4.90
2018-05-26T16:24:41.506Z,3.58
2018-05-26T16:27:10.562Z,5.37
2018-05-26T16:29:39.724Z,3.58
2018-05-26T16:32:08.517Z,4.70
2018-05-26T16:34:36.075Z,5.37
2018-05-26T16:37:04.566Z,3.70
2018-05-26T16:39:32.876Z,4.90
2018-05-26T16:42:01.229Z,3.75
2018-05-26T16:44:28.813Z,5.03
2018-05-26T16:46:56.704Z,3.78
2018-05-26T16:49:24.548Z,4.20
2018-05-26T16:51:53.083Z,3.62
2018-05-26T16:54:22.416Z,10.18
2018-05-26T16:56:49.984Z,3.42
2018-05-26T16:59:18.474Z,4.18
2018-05-26T17:01:46.036Z,6.00
2018-05-26T17:04:13.602Z,5.15
2018-05-26T17:06:41.168Z,3.50
2018-05-26T17:09:09.582Z,3.37
2018-05-26T17:11:37.161Z,5.25
2018-05-26T17:14:09.281Z,5.53
2018-05-26T17:16:38.164Z,5.62
2018-05-26T17:19:10.274Z,5.60
2018-05-26T17:21:40.593Z,4.50
2018-05-26T17:24:09.600Z,6.80
2018-05-26T17:26:37.192Z,4.62
2018-05-26T17:29:04.775Z,6.00
2018-05-26T17:31:33.217Z,5.20
2018-05-26T17:34:00.797Z,3.70
2018-05-26T17:36:28.464Z,5.30
2018-05-26T17:38:56.078Z,7.47
2018-05-26T17:41:24.268Z,7.47
2018-05-26T17:43:53.076Z,3.90
2018-05-26T17:46:20.650Z,4.68
2018-05-26T17:48:48.218Z,6.10
2018-05-26T17:51:15.775Z,6.03
2018-05-26T17:53:44.240Z,3.83
2018-05-26T17:56:11.860Z,7.85
2018-05-26T17:58:39.435Z,8.73
2018-05-26T18:01:06.998Z,5.15
2018-05-26T18:03:34.581Z,4.57
2018-05-26T18:06:02.858Z,3.85
2018-05-26T18:08:32.318Z,4.62
2018-05-26T18:10:59.876Z,8.68
2018-05-26T18:13:29.911Z,4.45
2018-05-26T18:15:58.237Z,5.35
2018-05-26T18:18:26.565Z,6.28
2018-05-26T18:20:54.247Z,4.18
2018-05-26T18:23:21.883Z,3.80
2018-05-26T18:25:50.447Z,4.65
2018-05-26T18:28:18.796Z,4.70
2018-05-26T18:30:46.360Z,5.00
2018-05-26T18:33:13.932Z,4.40
2018-05-26T18:35:42.270Z,4.28
2018-05-26T18:38:10.013Z,4.65
2018-05-26T18:40:38.115Z,7.12
2018-05-26T18:43:05.933Z,5.68
2018-05-26T18:45:34.998Z,4.25
2018-05-26T18:48:03.219Z,4.00
2018-05-26T18:50:30.790Z,4.18
2018-05-26T18:52:59.076Z,4.12
2018-05-26T18:55:27.413Z,4.68
2018-05-26T18:57:55.177Z,8.23
2018-05-26T19:00:22.742Z,5.53
2018-05-26T19:02:51.928Z,6.95
2018-05-26T19:05:19.497Z,5.40
2018-05-26T19:07:47.133Z,5.97
2018-05-26T19:10:15.465Z,4.53
2018-05-26T19:12:44.045Z,5.00
2018-05-26T19:15:11.580Z,9.30
2018-05-26T19:17:39.943Z,5.13
2018-05-26T19:20:08.590Z,5.20
2018-05-26T19:22:36.903Z,4.10
2018-05-26T19:25:05.287Z,7.97
2018-05-26T19:27:33.619Z,10.03
2018-05-26T19:30:02.070Z,8.57
2018-05-26T19:32:29.813Z,4.53
2018-05-26T19:34:58.220Z,3.97
2018-05-26T19:37:26.243Z,11.80
2018-05-26T19:39:53.865Z,6.33
2018-05-26T19:42:21.798Z,4.93
2018-05-26T19:44:50.101Z,4.47
2018-05-26T19:47:20.278Z,4.50
2018-05-26T19:49:47.895Z,5.67
2018-05-26T19:52:15.413Z,4.83
2018-05-26T19:54:44.551Z,4.63
2018-05-26T19:57:12.100Z,5.73
2018-05-26T19:59:40.177Z,9.00
2018-05-26T20:02:07.738Z,5.67
2018-05-26T20:04:36.698Z,5.47
2018-05-26T20:07:04.481Z,5.30
2018-05-26T20:09:32.875Z,4.60
2018-05-26T20:12:02.340Z,5.70
2018-05-26T20:14:29.878Z,4.93
2018-05-26T20:16:57.429Z,5.53
2018-05-26T20:19:25.165Z,5.00
2018-05-26T20:21:52.720Z,4.87
2018-05-26T20:24:20.290Z,7.07
2018-05-26T20:26:47.857Z,5.10
2018-05-26T20:29:17.003Z,5.30
2018-05-26T20:31:45.325Z,6.80
2018-05-26T20:34:12.861Z,6.00
2018-05-26T20:36:40.423Z,5.33
2018-05-26T20:39:07.978Z,6.30
2018-05-26T20:41:35.525Z,6.87
2018-05-26T20:44:03.083Z,10.20
2018-05-26T20:46:30.627Z,8.40
2018-05-26T20:48:58.934Z,5.50
2018-05-26T20:51:26.491Z,6.30
2018-05-26T20:53:54.043Z,7.60
2018-05-26T20:56:21.607Z,5.17
2018-05-26T20:58:49.927Z,5.20
2018-05-26T21:01:18.467Z,5.93
2018-05-26T21:03:46.025Z,7.50
2018-05-26T21:06:13.945Z,5.17
2018-05-26T21:08:48.448Z,7.13
2018-05-26T21:11:15.984Z,7.20
2018-05-26T21:16:36.167Z,5.63
2018-05-26T21:19:03.808Z,5.43
2018-05-26T21:21:31.400Z,5.27
2018-05-26T21:23:58.939Z,6.13
2018-05-26T21:26:26.480Z,5.07
2018-05-26T21:28:54.078Z,20.73
2018-05-26T21:31:21.707Z,10.53
2018-05-26T21:33:50.451Z,8.63
2018-05-26T21:36:18.176Z,6.23
2018-05-26T21:38:46.897Z,5.87
2018-05-26T21:41:16.430Z,7.47
2018-05-26T21:43:44.731Z,5.90
2018-05-26T21:46:12.297Z,7.57
2018-05-26T21:48:40.598Z,7.07
2018-05-26T21:51:08.940Z,8.67
2018-05-26T21:53:37.451Z,8.97
2018-05-26T21:56:04.988Z,8.70
2018-05-26T21:58:34.489Z,14.10
2018-05-26T22:01:03.415Z,9.30
2018-05-26T22:03:30.985Z,12.60
2018-05-26T22:05:58.525Z,8.87
2018-05-26T22:08:26.259Z,10.10
2018-05-26T22:10:55.534Z,10.53
2018-05-26T22:13:23.771Z,6.60
2018-05-26T22:15:52.327Z,8.87
2018-05-26T22:18:32.056Z,7.37
2018-05-26T22:21:00.652Z,7.77
2018-05-26T22:23:29.010Z,8.03
2018-05-26T22:25:58.864Z,10.23
2018-05-26T22:28:26.459Z,9.20
2018-05-26T22:30:54.134Z,10.43
2018-05-26T22:33:21.696Z,9.07
2018-05-26T22:35:50.006Z,9.67
2018-05-26T22:38:17.847Z,8.53
2018-05-26T22:40:46.231Z,8.20
2018-05-26T22:43:13.829Z,9.97
2018-05-26T22:48:20.489Z,7.93
2018-05-26T22:50:48.041Z,8.57
2018-05-26T22:53:15.595Z,9.27
2018-05-26T22:55:43.127Z,10.80
2018-05-26T22:58:11.449Z,10.33
2018-05-26T23:00:40.092Z,10.83
2018-05-26T23:03:09.247Z,10.67
2018-05-26T23:05:36.775Z,10.10
2018-05-26T23:08:04.939Z,11.07
2018-05-26T23:10:34.460Z,10.90
2018-05-26T23:13:02.858Z,10.43
2018-05-26T23:15:31.172Z,10.83
2018-05-26T23:17:59.540Z,8.77
2018-05-26T23:20:28.348Z,9.57
2018-05-26T23:22:58.617Z,10.03
2018-05-26T23:25:26.966Z,9.83
2018-05-26T23:27:54.590Z,10.47
2018-05-26T23:30:23.033Z,9.40
2018-05-26T23:32:51.336Z,10.43
2018-05-26T23:35:20.045Z,10.43
2018-05-26T23:37:48.976Z,10.10
2018-05-26T23:40:16.528Z,13.20
2018-05-26T23:42:44.139Z,10.67
2018-05-26T23:45:11.740Z,12.47
2018-05-26T23:47:39.298Z,11.47
2018-05-26T23:50:06.891Z,13.87
2018-05-26T23:52:34.433Z,11.23
2018-05-26T23:55:02.699Z,11.30
2018-05-26T23:57:34.059Z,12.00
